sensor_id;sensor_type;location;lat;lon;timestamp;pressure;altitude;pressure_sealevel;temperature;humidity
25238;BME280;13185;50.872;5.306;2023-06-10T00:02:07;100945.19;;;21.97;52.50
25238;BME280;13185;50.872;5.306;2023-06-10T00:04:33;100942.31;;;21.90;52.64
25238;BME280;13185;50.872;5.306;2023-06-10T00:06:58;100944.38;;;21.88;53.07
25238;BME280;13185;50.872;5.306;2023-06-10T00:09:24;100949.97;;;21.87;53.25
25238;BME280;13185;50.872;5.306;2023-06-10T00:11:51;100939.41;;;21.84;53.42
25238;BME280;13185;50.872;5.306;2023-06-10T00:14:16;100941.63;;;21.80;53.35
25238;BME280;13185;50.872;5.306;2023-06-10T00:16:42;100938.38;;;21.77;53.91
25238;BME280;13185;50.872;5.306;2023-06-10T00:19:10;100946.25;;;21.72;54.08
25238;BME280;13185;50.872;5.306;2023-06-10T00:21:39;100941.97;;;21.69;54.33
25238;BME280;13185;50.872;5.306;2023-06-10T00:24:08;100936.50;;;21.61;54.56
25238;BME280;13185;50.872;5.306;2023-06-10T00:26:39;100936.16;;;21.56;54.45
25238;BME280;13185;50.872;5.306;2023-06-10T00:29:06;100937.50;;;21.52;55.10
25238;BME280;13185;50.872;5.306;2023-06-10T00:31:33;100938.03;;;21.47;54.72
25238;BME280;13185;50.872;5.306;2023-06-10T00:33:59;100943.63;;;21.46;55.52
25238;BME280;13185;50.872;5.306;2023-06-10T00:36:25;100936.66;;;21.43;55.54
25238;BME280;13185;50.872;5.306;2023-06-10T00:38:50;100935.97;;;21.41;55.72
25238;BME280;13185;50.872;5.306;2023-06-10T00:41:16;100944.31;;;21.40;55.87
25238;BME280;13185;50.872;5.306;2023-06-10T00:43:41;100936.78;;;21.33;55.89
25238;BME280;13185;50.872;5.306;2023-06-10T00:46:07;100945.16;;;21.32;55.86
25238;BME280;13185;50.872;5.306;2023-06-10T00:48:33;100932.88;;;21.28;55.87
25238;BME280;13185;50.872;5.306;2023-06-10T00:50:59;100943.09;;;21.26;56.20
25238;BME280;13185;50.872;5.306;2023-06-10T00:53:25;100939.81;;;21.22;56.27
25238;BME280;13185;50.872;5.306;2023-06-10T00:55:51;100929.25;;;21.19;56.82
25238;BME280;13185;50.872;5.306;2023-06-10T00:58:17;100935.03;;;21.16;56.75
25238;BME280;13185;50.872;5.306;2023-06-10T01:00:43;100939.63;;;21.16;57.08
25238;BME280;13185;50.872;5.306;2023-06-10T01:03:10;100934.31;;;21.14;57.22
25238;BME280;13185;50.872;5.306;2023-06-10T01:05:38;100933.63;;;21.12;57.73
25238;BME280;13185;50.872;5.306;2023-06-10T01:10:57;100932.75;;;21.03;58.12
25238;BME280;13185;50.872;5.306;2023-06-10T01:13:25;100934.13;;;20.99;58.22
25238;BME280;13185;50.872;5.306;2023-06-10T01:15:56;100942.47;;;20.98;58.26
25238;BME280;13185;50.872;5.306;2023-06-10T01:18:22;100941.06;;;20.94;58.04
25238;BME280;13185;50.872;5.306;2023-06-10T01:20:49;100930.50;;;20.91;58.52
25238;BME280;13185;50.872;5.306;2023-06-10T01:23:15;100941.06;;;20.86;58.69
25238;BME280;13185;50.872;5.306;2023-06-10T01:25:57;100936.94;;;20.82;58.85
25238;BME280;13185;50.872;5.306;2023-06-10T01:28:36;100936.41;;;20.78;59.07
25238;BME280;13185;50.872;5.306;2023-06-10T01:34:10;100930.75;;;20.71;59.83
25238;BME280;13185;50.872;5.306;2023-06-10T01:36:38;100934.66;;;20.69;59.79
25238;BME280;13185;50.872;5.306;2023-06-10T01:39:08;100931.25;;;20.67;60.38
25238;BME280;13185;50.872;5.306;2023-06-10T01:41:34;100935.31;;;20.63;60.39
25238;BME280;13185;50.872;5.306;2023-06-10T01:44:00;100936.50;;;20.60;60.37
25238;BME280;13185;50.872;5.306;2023-06-10T01:46:26;100935.63;;;20.60;60.33
25238;BME280;13185;50.872;5.306;2023-06-10T01:48:51;100944.47;;;20.54;60.69
25238;BME280;13185;50.872;5.306;2023-06-10T01:51:17;100938.31;;;20.52;60.89
25238;BME280;13185;50.872;5.306;2023-06-10T01:53:43;100943.06;;;20.50;61.02
25238;BME280;13185;50.872;5.306;2023-06-10T01:56:08;100937.09;;;20.46;61.20
25238;BME280;13185;50.872;5.306;2023-06-10T01:58:35;100937.44;;;20.43;61.37
25238;BME280;13185;50.872;5.306;2023-06-10T02:01:00;100939.56;;;20.39;61.43
25238;BME280;13185;50.872;5.306;2023-06-10T02:03:26;100940.59;;;20.38;61.90
25238;BME280;13185;50.872;5.306;2023-06-10T02:05:51;100943.66;;;20.35;61.91
25238;BME280;13185;50.872;5.306;2023-06-10T02:08:17;100941.09;;;20.34;61.95
25238;BME280;13185;50.872;5.306;2023-06-10T02:10:42;100944.28;;;20.29;62.33
25238;BME280;13185;50.872;5.306;2023-06-10T02:13:08;100941.72;;;20.28;62.29
25238;BME280;13185;50.872;5.306;2023-06-10T02:15:33;100940.19;;;20.25;62.63
25238;BME280;13185;50.872;5.306;2023-06-10T02:17:59;100941.19;;;20.24;62.61
25238;BME280;13185;50.872;5.306;2023-06-10T02:20:25;100933.31;;;20.21;62.28
25238;BME280;13185;50.872;5.306;2023-06-10T02:22:51;100940.81;;;20.19;62.62
25238;BME280;13185;50.872;5.306;2023-06-10T02:25:17;100937.41;;;20.17;62.83
25238;BME280;13185;50.872;5.306;2023-06-10T02:27:42;100945.88;;;20.14;63.00
25238;BME280;13185;50.872;5.306;2023-06-10T02:30:08;100955.25;;;20.11;63.03
25238;BME280;13185;50.872;5.306;2023-06-10T02:32:35;100948.91;;;20.11;63.19
25238;BME280;13185;50.872;5.306;2023-06-10T02:35:02;100951.78;;;20.09;63.00
25238;BME280;13185;50.872;5.306;2023-06-10T02:37:28;100958.09;;;20.10;63.39
25238;BME280;13185;50.872;5.306;2023-06-10T02:39:54;100959.44;;;20.06;63.24
25238;BME280;13185;50.872;5.306;2023-06-10T02:42:20;100953.13;;;20.05;63.45
25238;BME280;13185;50.872;5.306;2023-06-10T02:44:47;100956.72;;;20.06;63.25
25238;BME280;13185;50.872;5.306;2023-06-10T02:47:20;100955.16;;;20.03;63.52
25238;BME280;13185;50.872;5.306;2023-06-10T02:49:45;100951.03;;;19.99;63.47
25238;BME280;13185;50.872;5.306;2023-06-10T02:52:11;100949.50;;;19.97;64.00
25238;BME280;13185;50.872;5.306;2023-06-10T02:54:37;100951.53;;;19.95;64.10
25238;BME280;13185;50.872;5.306;2023-06-10T02:57:05;100950.28;;;19.89;64.20
25238;BME280;13185;50.872;5.306;2023-06-10T02:59:31;100954.00;;;19.88;64.35
25238;BME280;13185;50.872;5.306;2023-06-10T03:01:58;100952.47;;;19.85;64.47
25238;BME280;13185;50.872;5.306;2023-06-10T03:04:26;100959.78;;;19.85;64.42
25238;BME280;13185;50.872;5.306;2023-06-10T03:07:00;100960.25;;;19.80;64.96
25238;BME280;13185;50.872;5.306;2023-06-10T03:09:32;100960.38;;;19.79;64.81
25238;BME280;13185;50.872;5.306;2023-06-10T03:11:59;100965.13;;;19.77;65.02
25238;BME280;13185;50.872;5.306;2023-06-10T03:14:28;100958.00;;;19.76;65.15
25238;BME280;13185;50.872;5.306;2023-06-10T03:16:53;100956.44;;;19.73;65.17
25238;BME280;13185;50.872;5.306;2023-06-10T03:19:22;100967.66;;;19.70;65.27
25238;BME280;13185;50.872;5.306;2023-06-10T03:22:07;100963.50;;;19.66;65.54
25238;BME280;13185;50.872;5.306;2023-06-10T03:24:35;100966.38;;;19.65;65.61
25238;BME280;13185;50.872;5.306;2023-06-10T03:27:03;100967.41;;;19.64;65.80
25238;BME280;13185;50.872;5.306;2023-06-10T03:29:31;100974.72;;;19.63;65.72
25238;BME280;13185;50.872;5.306;2023-06-10T03:31:56;100968.56;;;19.61;65.89
25238;BME280;13185;50.872;5.306;2023-06-10T03:34:23;100970.56;;;19.59;65.79
25238;BME280;13185;50.872;5.306;2023-06-10T03:36:49;100978.03;;;19.57;65.84
25238;BME280;13185;50.872;5.306;2023-06-10T03:39:15;100978.31;;;19.54;66.17
25238;BME280;13185;50.872;5.306;2023-06-10T03:41:41;100982.91;;;19.53;66.41
25238;BME280;13185;50.872;5.306;2023-06-10T03:44:07;100979.50;;;19.51;66.25
25238;BME280;13185;50.872;5.306;2023-06-10T03:46:32;100975.91;;;19.51;66.57
25238;BME280;13185;50.872;5.306;2023-06-10T03:48:58;100984.25;;;19.49;66.43
25238;BME280;13185;50.872;5.306;2023-06-10T03:51:26;100986.22;;;19.47;66.93
25238;BME280;13185;50.872;5.306;2023-06-10T03:53:52;100988.41;;;19.44;67.16
25238;BME280;13185;50.872;5.306;2023-06-10T03:56:18;100985.00;;;19.42;67.19
25238;BME280;13185;50.872;5.306;2023-06-10T03:58:43;100980.56;;;19.41;67.26
25238;BME280;13185;50.872;5.306;2023-06-10T04:01:10;100987.88;;;19.40;67.47
25238;BME280;13185;50.872;5.306;2023-06-10T04:03:38;100986.16;;;19.39;67.22
25238;BME280;13185;50.872;5.306;2023-06-10T04:06:05;100985.31;;;19.39;67.53
25238;BME280;13185;50.872;5.306;2023-06-10T04:08:30;100978.88;;;19.40;67.82
25238;BME280;13185;50.872;5.306;2023-06-10T04:10:59;100984.31;;;19.40;67.76
25238;BME280;13185;50.872;5.306;2023-06-10T04:13:26;100978.00;;;19.39;67.60
25238;BME280;13185;50.872;5.306;2023-06-10T04:15:55;100982.28;;;19.42;67.98
25238;BME280;13185;50.872;5.306;2023-06-10T04:18:21;100983.13;;;19.42;68.13
25238;BME280;13185;50.872;5.306;2023-06-10T04:20:52;100988.56;;;19.42;68.38
25238;BME280;13185;50.872;5.306;2023-06-10T04:23:18;100992.16;;;19.43;68.15
25238;BME280;13185;50.872;5.306;2023-06-10T04:25:45;100993.00;;;19.43;68.27
25238;BME280;13185;50.872;5.306;2023-06-10T04:28:11;100999.28;;;19.44;68.63
25238;BME280;13185;50.872;5.306;2023-06-10T04:30:37;101000.84;;;19.46;68.42
25238;BME280;13185;50.872;5.306;2023-06-10T04:33:02;100999.84;;;19.47;68.14
25238;BME280;13185;50.872;5.306;2023-06-10T04:35:28;101003.13;;;19.51;68.25
25238;BME280;13185;50.872;5.306;2023-06-10T04:37:56;101003.81;;;19.53;68.37
25238;BME280;13185;50.872;5.306;2023-06-10T04:40:22;101009.94;;;19.55;67.99
25238;BME280;13185;50.872;5.306;2023-06-10T04:42:48;101002.22;;;19.60;68.36
25238;BME280;13185;50.872;5.306;2023-06-10T04:45:14;101004.78;;;19.62;68.31
25238;BME280;13185;50.872;5.306;2023-06-10T04:47:40;100999.91;;;19.65;68.14
25238;BME280;13185;50.872;5.306;2023-06-10T04:50:06;101000.31;;;19.70;68.29
25238;BME280;13185;50.872;5.306;2023-06-10T04:52:32;101001.69;;;19.74;68.11
25238;BME280;13185;50.872;5.306;2023-06-10T04:54:59;101003.63;;;19.82;67.94
25238;BME280;13185;50.872;5.306;2023-06-10T04:57:24;101005.88;;;19.86;67.63
25238;BME280;13185;50.872;5.306;2023-06-10T04:59:50;101004.94;;;19.96;67.62
25238;BME280;13185;50.872;5.306;2023-06-10T05:02:15;101004.69;;;20.07;67.63
25238;BME280;13185;50.872;5.306;2023-06-10T05:04:41;101010.91;;;20.17;67.15
25238;BME280;13185;50.872;5.306;2023-06-10T05:07:06;101012.38;;;20.29;66.98
25238;BME280;13185;50.872;5.306;2023-06-10T05:09:32;101013.28;;;20.38;66.93
25238;BME280;13185;50.872;5.306;2023-06-10T05:11:58;101014.41;;;20.45;66.94
25238;BME280;13185;50.872;5.306;2023-06-10T05:14:24;101001.69;;;20.54;66.77
25238;BME280;13185;50.872;5.306;2023-06-10T05:16:50;101007.88;;;20.64;66.36
25238;BME280;13185;50.872;5.306;2023-06-10T05:19:16;101008.63;;;20.74;66.09
25238;BME280;13185;50.872;5.306;2023-06-10T05:21:43;101008.66;;;20.82;65.72
25238;BME280;13185;50.872;5.306;2023-06-10T05:24:09;101011.25;;;20.92;65.60
25238;BME280;13185;50.872;5.306;2023-06-10T05:26:35;101014.72;;;21.02;65.17
25238;BME280;13185;50.872;5.306;2023-06-10T05:29:05;101019.72;;;21.15;64.73
25238;BME280;13185;50.872;5.306;2023-06-10T05:31:31;101009.69;;;21.23;64.61
25238;BME280;13185;50.872;5.306;2023-06-10T05:33:57;101018.31;;;21.37;64.02
25238;BME280;13185;50.872;5.306;2023-06-10T05:36:22;101019.72;;;21.49;63.61
25238;BME280;13185;50.872;5.306;2023-06-10T05:38:50;101013.56;;;21.55;63.38
25238;BME280;13185;50.872;5.306;2023-06-10T05:41:16;101021.31;;;21.68;63.27
25238;BME280;13185;50.872;5.306;2023-06-10T05:43:41;101021.84;;;21.79;63.14
25238;BME280;13185;50.872;5.306;2023-06-10T05:46:07;101029.34;;;21.94;62.74
25238;BME280;13185;50.872;5.306;2023-06-10T05:48:32;101027.47;;;22.02;61.97
25238;BME280;13185;50.872;5.306;2023-06-10T05:50:58;101026.69;;;22.10;61.61
25238;BME280;13185;50.872;5.306;2023-06-10T05:53:23;101021.72;;;22.22;61.42
25238;BME280;13185;50.872;5.306;2023-06-10T05:55:49;101024.78;;;22.27;61.05
25238;BME280;13185;50.872;5.306;2023-06-10T05:58:14;101023.75;;;22.36;61.03
25238;BME280;13185;50.872;5.306;2023-06-10T06:00:40;101023.75;;;22.44;60.30
25238;BME280;13185;50.872;5.306;2023-06-10T06:03:07;101022.34;;;22.56;59.96
25238;BME280;13185;50.872;5.306;2023-06-10T06:05:33;101027.28;;;22.69;59.79
25238;BME280;13185;50.872;5.306;2023-06-10T06:08:01;101026.06;;;22.80;59.83
25238;BME280;13185;50.872;5.306;2023-06-10T06:10:27;101030.88;;;22.94;59.41
25238;BME280;13185;50.872;5.306;2023-06-10T06:12:53;101016.81;;;23.05;59.12
25238;BME280;13185;50.872;5.306;2023-06-10T06:15:18;101022.75;;;23.09;58.84
25238;BME280;13185;50.872;5.306;2023-06-10T06:17:44;101030.06;;;23.24;58.26
25238;BME280;13185;50.872;5.306;2023-06-10T06:20:09;101018.34;;;23.39;58.26
25238;BME280;13185;50.872;5.306;2023-06-10T06:22:35;101020.84;;;23.56;57.49
25238;BME280;13185;50.872;5.306;2023-06-10T06:25:01;101021.84;;;23.64;56.11
25238;BME280;13185;50.872;5.306;2023-06-10T06:27:26;101022.59;;;23.80;56.63
25238;BME280;13185;50.872;5.306;2023-06-10T06:29:51;101020.88;;;24.02;55.52
25238;BME280;13185;50.872;5.306;2023-06-10T06:32:17;101024.34;;;24.19;55.45
25238;BME280;13185;50.872;5.306;2023-06-10T06:34:43;101024.81;;;24.31;54.79
25238;BME280;13185;50.872;5.306;2023-06-10T06:37:08;101026.34;;;24.48;54.13
25238;BME280;13185;50.872;5.306;2023-06-10T06:39:36;101030.81;;;24.64;53.90
25238;BME280;13185;50.872;5.306;2023-06-10T06:42:02;101020.69;;;24.79;53.46
25238;BME280;13185;50.872;5.306;2023-06-10T06:44:45;101038.44;;;24.91;53.29
25238;BME280;13185;50.872;5.306;2023-06-10T06:47:11;101028.72;;;25.03;52.74
25238;BME280;13185;50.872;5.306;2023-06-10T06:49:37;101031.88;;;25.22;52.37
25238;BME280;13185;50.872;5.306;2023-06-10T06:52:03;101031.88;;;25.37;51.51
25238;BME280;13185;50.872;5.306;2023-06-10T06:54:29;101036.13;;;25.39;50.99
25238;BME280;13185;50.872;5.306;2023-06-10T06:56:54;101035.28;;;25.39;51.16
25238;BME280;13185;50.872;5.306;2023-06-10T06:59:20;101035.53;;;25.58;50.73
25238;BME280;13185;50.872;5.306;2023-06-10T07:01:46;101045.09;;;25.77;50.88
25238;BME280;13185;50.872;5.306;2023-06-10T07:04:14;101038.47;;;25.93;50.18
25238;BME280;13185;50.872;5.306;2023-06-10T07:06:39;101037.81;;;25.91;49.31
25238;BME280;13185;50.872;5.306;2023-06-10T07:09:05;101042.81;;;26.02;49.30
25238;BME280;13185;50.872;5.306;2023-06-10T07:11:31;101043.09;;;26.07;49.03
25238;BME280;13185;50.872;5.306;2023-06-10T07:13:57;101044.97;;;26.28;48.78
25238;BME280;13185;50.872;5.306;2023-06-10T07:16:22;101043.28;;;26.49;49.01
25238;BME280;13185;50.872;5.306;2023-06-10T07:18:48;101047.28;;;26.74;48.82
25238;BME280;13185;50.872;5.306;2023-06-10T07:21:13;101048.88;;;26.90;48.00
25238;BME280;13185;50.872;5.306;2023-06-10T07:23:42;101053.34;;;26.97;47.75
25238;BME280;13185;50.872;5.306;2023-06-10T07:26:08;101057.28;;;27.10;46.93
25238;BME280;13185;50.872;5.306;2023-06-10T07:28:37;101046.78;;;27.26;46.86
25238;BME280;13185;50.872;5.306;2023-06-10T07:31:03;101045.75;;;27.34;46.10
25238;BME280;13185;50.872;5.306;2023-06-10T07:33:29;101054.03;;;27.34;45.71
25238;BME280;13185;50.872;5.306;2023-06-10T07:35:54;101053.22;;;27.47;46.30
25238;BME280;13185;50.872;5.306;2023-06-10T07:38:20;101053.56;;;27.65;45.92
25238;BME280;13185;50.872;5.306;2023-06-10T07:40:45;101050.66;;;27.86;45.79
25238;BME280;13185;50.872;5.306;2023-06-10T07:43:11;101046.88;;;28.21;45.17
25238;BME280;13185;50.872;5.306;2023-06-10T07:45:36;101053.31;;;28.48;44.92
25238;BME280;13185;50.872;5.306;2023-06-10T07:48:02;101057.09;;;28.73;44.33
25238;BME280;13185;50.872;5.306;2023-06-10T07:50:28;101061.56;;;28.94;43.64
25238;BME280;13185;50.872;5.306;2023-06-10T07:52:53;101066.03;;;29.01;43.56
25238;BME280;13185;50.872;5.306;2023-06-10T07:55:19;101055.19;;;29.00;43.03
25238;BME280;13185;50.872;5.306;2023-06-10T07:57:44;101060.28;;;29.03;43.35
25238;BME280;13185;50.872;5.306;2023-06-10T08:00:10;101057.69;;;29.21;43.30
25238;BME280;13185;50.872;5.306;2023-06-10T08:02:39;101058.53;;;29.22;43.32
25238;BME280;13185;50.872;5.306;2023-06-10T08:05:05;101053.59;;;29.37;42.89
25238;BME280;13185;50.872;5.306;2023-06-10T08:07:30;101056.72;;;29.47;42.86
25238;BME280;13185;50.872;5.306;2023-06-10T08:09:57;101064.91;;;29.29;43.21
25238;BME280;13185;50.872;5.306;2023-06-10T08:12:22;101070.66;;;29.21;43.05
25238;BME280;13185;50.872;5.306;2023-06-10T08:14:48;101056.84;;;29.21;43.50
25238;BME280;13185;50.872;5.306;2023-06-10T08:17:13;101051.53;;;29.19;42.80
25238;BME280;13185;50.872;5.306;2023-06-10T08:19:39;101058.38;;;29.03;43.07
25238;BME280;13185;50.872;5.306;2023-06-10T08:22:04;101068.56;;;28.96;43.64
25238;BME280;13185;50.872;5.306;2023-06-10T08:24:30;101054.75;;;28.96;44.10
25238;BME280;13185;50.872;5.306;2023-06-10T08:26:56;101060.50;;;28.95;42.90
25238;BME280;13185;50.872;5.306;2023-06-10T08:29:22;101058.59;;;28.82;43.56
25238;BME280;13185;50.872;5.306;2023-06-10T08:31:48;101063.25;;;28.82;43.66
25238;BME280;13185;50.872;5.306;2023-06-10T08:34:13;101057.97;;;28.80;44.04
25238;BME280;13185;50.872;5.306;2023-06-10T08:36:39;101057.34;;;28.52;43.76
25238;BME280;13185;50.872;5.306;2023-06-10T08:39:04;101060.53;;;28.49;44.45
25238;BME280;13185;50.872;5.306;2023-06-10T08:41:34;101052.88;;;28.51;44.86
25238;BME280;13185;50.872;5.306;2023-06-10T08:44:10;101056.06;;;28.48;44.97
25238;BME280;13185;50.872;5.306;2023-06-10T08:46:38;101051.81;;;28.45;45.54
25238;BME280;13185;50.872;5.306;2023-06-10T08:49:07;101052.25;;;28.49;45.07
25238;BME280;13185;50.872;5.306;2023-06-10T08:51:34;101057.13;;;28.60;45.41
25238;BME280;13185;50.872;5.306;2023-06-10T08:54:13;101052.25;;;28.68;45.34
25238;BME280;13185;50.872;5.306;2023-06-10T08:56:40;101049.69;;;28.67;44.04
25238;BME280;13185;50.872;5.306;2023-06-10T08:59:08;101051.38;;;28.55;45.23
25238;BME280;13185;50.872;5.306;2023-06-10T09:01:34;101053.75;;;28.58;44.44
25238;BME280;13185;50.872;5.306;2023-06-10T09:04:00;101050.53;;;28.74;43.77
25238;BME280;13185;50.872;5.306;2023-06-10T09:06:27;101053.50;;;28.79;43.06
25238;BME280;13185;50.872;5.306;2023-06-10T09:08:52;101049.03;;;28.85;43.25
25238;BME280;13185;50.872;5.306;2023-06-10T09:11:18;101050.94;;;28.84;43.61
25238;BME280;13185;50.872;5.306;2023-06-10T09:13:44;101044.38;;;28.92;43.93
25238;BME280;13185;50.872;5.306;2023-06-10T09:16:09;101050.50;;;29.07;43.35
25238;BME280;13185;50.872;5.306;2023-06-10T09:18:37;101044.94;;;29.20;42.94
25238;BME280;13185;50.872;5.306;2023-06-10T09:21:03;101041.97;;;29.28;43.26
25238;BME280;13185;50.872;5.306;2023-06-10T09:23:29;101042.53;;;29.37;43.16
25238;BME280;13185;50.872;5.306;2023-06-10T09:25:57;101041.44;;;29.45;43.28
25238;BME280;13185;50.872;5.306;2023-06-10T09:28:23;101039.13;;;29.42;42.54
25238;BME280;13185;50.872;5.306;2023-06-10T09:30:49;101044.66;;;29.42;42.68
25238;BME280;13185;50.872;5.306;2023-06-10T09:33:15;101035.31;;;29.43;42.53
25238;BME280;13185;50.872;5.306;2023-06-10T09:35:48;101038.94;;;29.50;41.81
25238;BME280;13185;50.872;5.306;2023-06-10T09:38:19;101032.50;;;29.56;41.31
25238;BME280;13185;50.872;5.306;2023-06-10T09:43:15;101038.25;;;29.61;40.87
25238;BME280;13185;50.872;5.306;2023-06-10T09:45:41;101037.16;;;29.62;40.87
25238;BME280;13185;50.872;5.306;2023-06-10T09:48:08;101036.63;;;29.78;39.59
25238;BME280;13185;50.872;5.306;2023-06-10T09:50:34;101026.41;;;29.79;39.82
25238;BME280;13185;50.872;5.306;2023-06-10T09:53:00;101030.88;;;29.80;39.46
25238;BME280;13185;50.872;5.306;2023-06-10T09:55:28;101028.53;;;29.83;40.20
25238;BME280;13185;50.872;5.306;2023-06-10T09:57:53;101032.28;;;29.96;39.22
25238;BME280;13185;50.872;5.306;2023-06-10T10:00:19;101036.28;;;30.06;38.52
25238;BME280;13185;50.872;5.306;2023-06-10T10:02:52;101031.97;;;30.17;38.46
25238;BME280;13185;50.872;5.306;2023-06-10T10:05:20;101032.63;;;30.12;38.29
25238;BME280;13185;50.872;5.306;2023-06-10T10:07:47;101032.63;;;30.06;38.22
25238;BME280;13185;50.872;5.306;2023-06-10T10:10:17;101032.56;;;30.19;38.26
25238;BME280;13185;50.872;5.306;2023-06-10T10:12:46;101030.41;;;30.21;37.83
25238;BME280;13185;50.872;5.306;2023-06-10T10:15:12;101035.84;;;30.09;36.28
25238;BME280;13185;50.872;5.306;2023-06-10T10:17:40;101033.16;;;29.89;37.40
25238;BME280;13185;50.872;5.306;2023-06-10T10:20:08;101018.00;;;29.67;34.64
25238;BME280;13185;50.872;5.306;2023-06-10T10:22:38;101019.97;;;29.60;35.48
25238;BME280;13185;50.872;5.306;2023-06-10T10:25:13;101019.75;;;29.62;36.21
25238;BME280;13185;50.872;5.306;2023-06-10T10:27:45;101017.38;;;29.65;36.17
25238;BME280;13185;50.872;5.306;2023-06-10T10:30:13;101020.13;;;29.65;36.45
25238;BME280;13185;50.872;5.306;2023-06-10T10:32:46;101018.78;;;29.81;36.64
25238;BME280;13185;50.872;5.306;2023-06-10T10:35:20;101028.59;;;30.08;36.30
25238;BME280;13185;50.872;5.306;2023-06-10T10:37:48;101023.44;;;30.18;35.90
25238;BME280;13185;50.872;5.306;2023-06-10T10:40:14;101021.69;;;30.24;35.55
25238;BME280;13185;50.872;5.306;2023-06-10T10:42:41;101017.59;;;30.33;35.65
25238;BME280;13185;50.872;5.306;2023-06-10T10:45:07;101023.31;;;30.32;35.66
25238;BME280;13185;50.872;5.306;2023-06-10T10:47:34;101014.59;;;30.35;34.66
25238;BME280;13185;50.872;5.306;2023-06-10T10:50:01;101024.63;;;30.29;34.97
25238;BME280;13185;50.872;5.306;2023-06-10T10:52:48;101009.56;;;30.25;35.19
25238;BME280;13185;50.872;5.306;2023-06-10T10:55:16;101021.19;;;30.34;34.83
25238;BME280;13185;50.872;5.306;2023-06-10T10:57:41;101022.09;;;30.28;34.29
25238;BME280;13185;50.872;5.306;2023-06-10T11:00:09;101015.13;;;30.18;34.98
25238;BME280;13185;50.872;5.306;2023-06-10T11:02:43;101015.44;;;30.35;34.87
25238;BME280;13185;50.872;5.306;2023-06-10T11:05:10;101016.94;;;30.56;35.22
25238;BME280;13185;50.872;5.306;2023-06-10T11:07:37;101011.53;;;30.68;35.15
25238;BME280;13185;50.872;5.306;2023-06-10T11:10:09;101014.69;;;30.71;34.37
25238;BME280;13185;50.872;5.306;2023-06-10T11:12:51;101005.47;;;30.78;34.42
25238;BME280;13185;50.872;5.306;2023-06-10T11:15:19;101002.78;;;30.71;33.83
25238;BME280;13185;50.872;5.306;2023-06-10T11:26:20;101002.19;;;30.87;34.21
25238;BME280;13185;50.872;5.306;2023-06-10T11:31:19;100995.31;;;30.71;31.06
25238;BME280;13185;50.872;5.306;2023-06-10T11:33:47;100999.72;;;30.54;30.59
25238;BME280;13185;50.872;5.306;2023-06-10T11:36:13;100999.41;;;30.69;30.47
25238;BME280;13185;50.872;5.306;2023-06-10T11:38:40;100991.78;;;30.83;30.31
25238;BME280;13185;50.872;5.306;2023-06-10T11:41:06;100991.72;;;31.08;30.29
25238;BME280;13185;50.872;5.306;2023-06-10T11:43:33;100981.28;;;31.28;30.72
25238;BME280;13185;50.872;5.306;2023-06-10T11:45:59;100985.03;;;31.34;30.99
25238;BME280;13185;50.872;5.306;2023-06-10T11:48:25;100981.53;;;31.26;31.15
25238;BME280;13185;50.872;5.306;2023-06-10T11:50:53;100987.66;;;31.28;30.28
25238;BME280;13185;50.872;5.306;2023-06-10T11:53:19;100991.66;;;31.33;30.24
25238;BME280;13185;50.872;5.306;2023-06-10T11:55:46;100982.66;;;31.37;31.10
25238;BME280;13185;50.872;5.306;2023-06-10T11:58:16;100988.16;;;31.55;30.12
25238;BME280;13185;50.872;5.306;2023-06-10T12:00:49;100984.94;;;31.58;30.30
25238;BME280;13185;50.872;5.306;2023-06-10T12:03:15;100974.56;;;31.66;29.42
25238;BME280;13185;50.872;5.306;2023-06-10T12:05:59;100985.28;;;31.32;29.55
25238;BME280;13185;50.872;5.306;2023-06-10T12:08:26;100979.56;;;31.09;30.44
25238;BME280;13185;50.872;5.306;2023-06-10T12:10:52;100980.00;;;31.06;30.91
25238;BME280;13185;50.872;5.306;2023-06-10T12:13:18;100984.28;;;31.08;31.12
25238;BME280;13185;50.872;5.306;2023-06-10T12:15:44;100989.09;;;30.94;29.65
25238;BME280;13185;50.872;5.306;2023-06-10T12:18:23;100984.47;;;30.70;30.77
25238;BME280;13185;50.872;5.306;2023-06-10T12:20:49;100976.88;;;30.65;31.15
25238;BME280;13185;50.872;5.306;2023-06-10T12:23:16;100974.09;;;30.84;30.43
25238;BME280;13185;50.872;5.306;2023-06-10T12:25:55;100970.03;;;30.86;28.81
25238;BME280;13185;50.872;5.306;2023-06-10T12:28:25;100973.09;;;30.78;29.54
25238;BME280;13185;50.872;5.306;2023-06-10T12:30:52;100970.47;;;30.83;30.07
25238;BME280;13185;50.872;5.306;2023-06-10T12:33:30;100969.41;;;31.02;30.25
25238;BME280;13185;50.872;5.306;2023-06-10T12:35:56;100971.34;;;31.02;30.03
25238;BME280;13185;50.872;5.306;2023-06-10T12:38:26;100969.47;;;31.14;30.57
25238;BME280;13185;50.872;5.306;2023-06-10T12:40:54;100973.28;;;31.20;29.70
25238;BME280;13185;50.872;5.306;2023-06-10T12:43:26;100972.72;;;31.11;29.24
25238;BME280;13185;50.872;5.306;2023-06-10T12:45:51;100962.66;;;31.17;29.62
25238;BME280;13185;50.872;5.306;2023-06-10T12:48:20;100970.28;;;31.21;28.82
25238;BME280;13185;50.872;5.306;2023-06-10T12:50:57;100966.78;;;31.26;28.94
25238;BME280;13185;50.872;5.306;2023-06-10T12:53:24;100966.88;;;31.19;28.94
25238;BME280;13185;50.872;5.306;2023-06-10T12:55:51;100960.72;;;31.17;30.60
25238;BME280;13185;50.872;5.306;2023-06-10T12:58:19;100965.03;;;31.31;30.22
25238;BME280;13185;50.872;5.306;2023-06-10T13:00:45;100957.72;;;31.37;31.04
25238;BME280;13185;50.872;5.306;2023-06-10T13:03:10;100956.22;;;31.53;29.44
25238;BME280;13185;50.872;5.306;2023-06-10T13:05:36;100954.28;;;31.53;29.20
25238;BME280;13185;50.872;5.306;2023-06-10T13:08:08;100957.69;;;31.67;29.63
25238;BME280;13185;50.872;5.306;2023-06-10T13:10:35;100952.03;;;31.62;28.74